Time;durP1;ratioP1;P1;durP2;ratioP2;P2;SDS_P1;SDS_P2;PMS_P1;PMS_P2;Temp;Humidity;BMP_temperature;BMP_pressure;BME280_temperature;BME280_humidity;BME280_pressure;Samples;Min_cycle;Max_cycle;Signal;HPM_P1;HPM_P2
2021/07/21 00:00:13;;;;;;;22.50;11.80;;;;;;;17.14;70.66;102446.00;5002949;28;20040;-68
2021/07/21 00:02:39;;;;;;;23.17;12.52;;;;;;;17.09;70.73;102434.66;5023800;28;20080;-68
2021/07/21 00:05:12;;;;;;;21.20;11.98;;;;;;;17.08;70.32;102435.59;5018288;28;20463;-68
2021/07/21 00:07:38;;;;;;;21.70;11.48;;;;;;;17.04;70.48;102442.78;5023357;28;20029;-68
2021/07/21 00:10:06;;;;;;;21.75;12.73;;;;;;;17.03;70.58;102446.34;5025398;28;20037;-68
2021/07/21 00:15:16;;;;;;;22.52;12.32;;;;;;;16.98;71.22;102432.41;5025888;28;20084;-68
2021/07/21 00:17:44;;;;;;;22.23;12.30;;;;;;;16.93;71.67;102435.22;5026650;28;20029;-68
2021/07/21 00:20:10;;;;;;;19.27;10.98;;;;;;;16.91;71.34;102444.97;5021449;28;20511;-68
2021/07/21 00:22:40;;;;;;;19.50;11.70;;;;;;;16.88;71.19;102434.47;5026119;28;20098;-68
2021/07/21 00:25:07;;;;;;;18.67;11.57;;;;;;;16.88;71.62;102436.22;5003258;28;20029;-68
2021/07/21 00:27:34;;;;;;;18.48;11.57;;;;;;;16.87;71.24;102440.69;5009301;28;20029;-68
2021/07/21 00:29:59;;;;;;;18.55;11.40;;;;;;;16.86;71.44;102438.94;4984278;28;20061;-68
2021/07/21 00:32:25;;;;;;;20.10;12.05;;;;;;;16.84;71.28;102439.91;5008644;28;20061;-69
2021/07/21 00:34:50;;;;;;;19.38;11.75;;;;;;;16.80;71.80;102436.50;5008105;28;20118;-69
2021/07/21 00:37:15;;;;;;;21.90;11.48;;;;;;;16.74;71.95;102432.25;5021651;28;20163;-68
2021/07/21 00:39:41;;;;;;;22.50;11.73;;;;;;;16.69;72.20;102443.94;4999296;28;20034;-68
2021/07/21 00:42:06;;;;;;;18.90;11.02;;;;;;;16.65;72.28;102440.53;5010146;28;20435;-68
2021/07/21 00:44:32;;;;;;;20.23;11.63;;;;;;;16.61;72.30;102437.13;5016166;28;20025;-68
2021/07/21 00:46:57;;;;;;;20.73;11.48;;;;;;;16.59;72.88;102435.44;5026449;28;20442;-68
2021/07/21 00:49:25;;;;;;;22.83;11.60;;;;;;;16.54;72.53;102438.22;5017888;28;20470;-68
2021/07/21 00:51:51;;;;;;;20.67;11.82;;;;;;;16.52;73.02;102434.78;5009688;28;20537;-68
2021/07/21 00:54:17;;;;;;;21.00;12.35;;;;;;;16.46;73.51;102437.63;4987983;28;20122;-69
2021/07/21 00:56:42;;;;;;;20.40;11.75;;;;;;;16.42;73.58;102444.81;5009358;28;20056;-68
2021/07/21 00:59:08;;;;;;;19.67;11.43;;;;;;;16.39;73.96;102438.75;4993705;28;20032;-68
2021/07/21 01:01:34;;;;;;;20.13;11.27;;;;;;;16.34;74.18;102443.31;5006035;28;20033;-68
2021/07/21 01:04:02;;;;;;;23.08;13.02;;;;;;;16.29;74.48;102440.81;5027171;28;20082;-68
2021/07/21 01:06:27;;;;;;;19.65;11.48;;;;;;;16.25;74.21;102436.53;5011844;28;20088;-69
2021/07/21 01:08:53;;;;;;;21.77;12.32;;;;;;;16.22;74.62;102437.47;5020469;28;20033;-69
2021/07/21 01:11:33;;;;;;;20.67;12.02;;;;;;;16.21;74.81;102438.41;5007586;28;20490;-68
2021/07/21 01:14:08;;;;;;;22.58;11.50;;;;;;;16.18;75.14;102433.19;4999413;28;20034;-68
2021/07/21 01:16:35;;;;;;;21.27;11.25;;;;;;;16.14;74.97;102432.41;5003268;28;20475;-69
2021/07/21 01:19:07;;;;;;;18.85;12.13;;;;;;;16.08;75.54;102439.69;5008188;28;20017;-69
2021/07/21 01:21:51;;;;;;;19.00;11.75;;;;;;;16.03;75.31;102446.91;4993654;28;20063;-68
2021/07/21 01:24:28;;;;;;;23.13;12.02;;;;;;;16.01;75.38;102451.38;5026556;28;20021;-69
2021/07/21 01:26:56;;;;;;;22.00;11.48;;;;;;;15.97;75.16;102440.88;5008284;28;20552;-69
2021/07/21 01:29:24;;;;;;;17.90;11.82;;;;;;;15.98;75.20;102439.97;5023094;28;20033;-69
2021/07/21 01:31:51;;;;;;;19.05;11.40;;;;;;;15.93;75.80;102446.31;5000116;28;20057;-68
2021/07/21 01:34:18;;;;;;;20.67;12.25;;;;;;;15.88;76.04;102438.50;5002164;28;20033;-68
2021/07/21 01:36:50;;;;;;;21.17;11.77;;;;;;;15.90;75.75;102438.47;5022094;28;20021;-68
2021/07/21 01:39:16;;;;;;;22.17;12.18;;;;;;;15.87;75.72;102434.13;5000156;28;20072;-69
2021/07/21 01:41:47;;;;;;;21.95;12.23;;;;;;;15.85;75.69;102435.09;5023470;28;20030;-67
2021/07/21 01:44:18;;;;;;;26.40;12.60;;;;;;;15.83;75.93;102437.78;5008566;28;20552;-67
2021/07/21 01:46:44;;;;;;;22.70;13.02;;;;;;;15.85;75.63;102432.44;5005821;28;20548;-68
2021/07/21 01:49:11;;;;;;;21.70;12.27;;;;;;;15.87;75.66;102428.84;5019240;28;20064;-68
2021/07/21 01:51:36;;;;;;;19.42;11.48;;;;;;;15.89;75.29;102434.06;5003636;28;20032;-68
2021/07/21 01:54:02;;;;;;;22.38;11.75;;;;;;;15.86;75.56;102440.31;5023806;28;20038;-68
2021/07/21 01:56:29;;;;;;;18.35;11.13;;;;;;;15.82;75.85;102439.53;5022782;28;20158;-67
2021/07/21 01:58:55;;;;;;;21.98;12.02;;;;;;;15.81;75.86;102442.22;4989693;28;20398;-68
2021/07/21 02:01:24;;;;;;;18.15;11.90;;;;;;;15.80;76.14;102437.81;5024391;28;20116;-68
2021/07/21 02:03:49;;;;;;;24.30;11.75;;;;;;;15.74;76.49;102448.59;5027978;28;20100;-68
2021/07/21 02:06:16;;;;;;;18.42;11.43;;;;;;;15.72;76.59;102445.16;5002966;28;20112;-68
2021/07/21 02:08:42;;;;;;;22.08;11.13;;;;;;;15.67;76.39;102444.41;5032961;28;20038;-69
2021/07/21 02:11:08;;;;;;;22.60;11.98;;;;;;;15.62;76.65;102448.03;5011498;28;20056;-68
2021/07/21 02:13:34;;;;;;;23.23;12.02;;;;;;;15.59;77.08;102440.22;5011162;28;20033;-69
2021/07/21 02:16:04;;;;;;;20.90;11.35;;;;;;;15.58;77.14;102446.41;5012238;28;20037;-68
2021/07/21 02:18:30;;;;;;;23.95;12.07;;;;;;;15.55;76.98;102440.31;5027127;28;20021;-68
2021/07/21 02:20:56;;;;;;;18.73;11.77;;;;;;;15.55;77.27;102445.63;5009897;28;20083;-67
2021/07/21 02:23:25;;;;;;;24.05;12.15;;;;;;;15.56;77.00;102447.34;5028925;28;20017;-68
2021/07/21 02:25:50;;;;;;;20.05;12.23;;;;;;;15.56;77.12;102447.34;5014684;28;20250;-68
2021/07/21 02:28:17;;;;;;;22.42;11.68;;;;;;;15.57;77.09;102442.00;5011699;28;20021;-68
2021/07/21 02:30:45;;;;;;;20.33;12.07;;;;;;;15.54;77.14;102444.75;5028276;28;20090;-68
2021/07/21 02:33:17;;;;;;;21.27;12.55;;;;;;;15.54;76.89;102447.41;5027260;28;20041;-68
2021/07/21 02:35:43;;;;;;;20.98;12.25;;;;;;;15.52;77.09;102451.88;5007695;28;20048;-68
2021/07/21 02:38:09;;;;;;;22.42;12.77;;;;;;;15.48;77.31;102439.66;5029312;28;20470;-68
2021/07/21 02:40:34;;;;;;;24.73;12.00;;;;;;;15.47;77.23;102443.19;5028162;28;20029;-68
2021/07/21 02:43:00;;;;;;;21.80;13.02;;;;;;;15.44;77.40;102446.78;5029160;28;20025;-68
2021/07/21 02:45:25;;;;;;;24.27;12.80;;;;;;;15.41;77.73;102448.66;5028322;28;20154;-67
2021/07/21 02:47:52;;;;;;;25.52;13.27;;;;;;;15.40;77.56;102446.91;5032416;28;20024;-68
2021/07/21 02:50:18;;;;;;;26.27;13.95;;;;;;;15.35;77.80;102448.81;5024210;28;20434;-68
2021/07/21 02:53:07;;;;;;;24.35;13.23;;;;;;;15.33;78.22;102449.72;5026333;28;20570;-68
2021/07/21 02:55:37;;;;;;;20.17;11.68;;;;;;;15.32;78.10;102448.00;5021355;28;20025;-67
2021/07/21 02:58:21;;;;;;;27.52;13.40;;;;;;;15.28;77.91;102449.00;5008560;28;20045;-69
2021/07/21 03:00:46;;;;;;;21.67;12.57;;;;;;;15.22;78.46;102459.72;5000711;28;20075;-68
2021/07/21 03:03:16;;;;;;;21.83;12.73;;;;;;;15.16;78.44;102452.81;5010130;28;20483;-70
2021/07/21 03:05:42;;;;;;;21.23;11.93;;;;;;;15.10;79.09;102455.63;4996932;28;20061;-68
2021/07/21 03:08:07;;;;;;;21.98;12.52;;;;;;;15.06;79.26;102453.97;5028312;28;20103;-68
2021/07/21 03:10:33;;;;;;;26.80;13.30;;;;;;;15.04;79.07;102454.91;5010171;28;20247;-68
2021/07/21 03:13:02;;;;;;;25.67;13.23;;;;;;;15.03;79.39;102456.69;5026803;28;20034;-68
2021/07/21 03:15:30;;;;;;;24.30;13.00;;;;;;;15.01;79.49;102462.00;5027789;28;20022;-68
2021/07/21 03:17:56;;;;;;;25.30;13.68;;;;;;;15.02;79.49;102457.63;5028432;28;20024;-70
2021/07/21 03:20:22;;;;;;;29.55;13.55;;;;;;;15.03;79.55;102461.97;4975058;28;20489;-69
2021/07/21 03:22:49;;;;;;;25.60;14.50;;;;;;;15.05;79.67;102461.94;5009231;28;20087;-68
2021/07/21 03:25:14;;;;;;;26.58;14.13;;;;;;;15.04;80.10;102470.78;5007999;28;20029;-68
2021/07/21 03:27:40;;;;;;;24.02;13.82;;;;;;;15.01;79.95;102461.16;5026843;28;20017;-67
2021/07/21 03:30:08;;;;;;;26.92;15.50;;;;;;;14.99;80.21;102460.31;5004192;28;20392;-69
2021/07/21 03:32:34;;;;;;;25.52;14.60;;;;;;;14.95;80.47;102461.31;5019869;28;20649;-69
2021/07/21 03:34:59;;;;;;;27.30;13.95;;;;;;;14.90;80.54;102461.41;5007217;28;20025;-68
2021/07/21 03:37:26;;;;;;;24.85;14.43;;;;;;;14.88;80.64;102470.28;5026705;28;20045;-68
2021/07/21 03:39:54;;;;;;;29.23;13.98;;;;;;;14.86;80.75;102462.41;5006501;28;20098;-67
2021/07/21 03:42:22;;;;;;;28.40;14.48;;;;;;;14.85;80.54;102465.97;5008504;28;20021;-69
2021/07/21 03:44:47;;;;;;;29.33;14.63;;;;;;;14.84;80.59;102464.22;5034214;28;20035;-68
2021/07/21 03:47:16;;;;;;;28.73;15.15;;;;;;;14.85;80.56;102463.31;5008890;28;20105;-68
2021/07/21 03:49:42;;;;;;;25.25;13.90;;;;;;;14.86;80.64;102459.78;5009123;28;20036;-68
2021/07/21 03:52:11;;;;;;;22.77;13.60;;;;;;;14.88;80.63;102462.38;5008954;28;20025;-68
2021/07/21 03:54:38;;;;;;;24.70;14.20;;;;;;;14.91;80.18;102454.34;5007369;28;20033;-69
2021/07/21 03:57:04;;;;;;;26.30;14.43;;;;;;;14.93;80.14;102455.19;5024531;28;20033;-67
2021/07/21 03:59:29;;;;;;;29.10;14.40;;;;;;;14.94;80.00;102452.50;5003096;28;20103;-68
2021/07/21 04:01:55;;;;;;;25.08;14.25;;;;;;;14.97;79.87;102455.09;5026974;28;20029;-68
2021/07/21 04:04:21;;;;;;;24.30;14.32;;;;;;;14.99;80.20;102455.03;5009231;28;20075;-68
2021/07/21 04:06:47;;;;;;;28.13;14.80;;;;;;;14.97;80.02;102455.09;5009533;28;20021;-68
2021/07/21 04:09:18;;;;;;;26.27;14.70;;;;;;;14.98;80.10;102458.56;5004868;28;20398;-68
2021/07/21 04:11:44;;;;;;;24.58;14.18;;;;;;;14.97;80.10;102464.75;4997099;28;20034;-69
2021/07/21 04:14:15;;;;;;;27.85;13.38;;;;;;;14.96;80.36;102457.78;5005663;28;20026;-69
2021/07/21 04:16:41;;;;;;;27.85;14.38;;;;;;;14.97;79.88;102459.47;5009154;28;20093;-67
2021/07/21 04:19:09;;;;;;;30.73;14.15;;;;;;;14.94;80.18;102454.28;5002145;28;20026;-68
2021/07/21 04:21:36;;;;;;;25.05;13.50;;;;;;;14.95;79.99;102456.03;5025213;28;20033;-68
2021/07/21 04:24:02;;;;;;;23.90;14.00;;;;;;;14.98;79.93;102461.22;5008385;28;20022;-68
2021/07/21 04:26:27;;;;;;;25.02;13.80;;;;;;;15.00;80.31;102457.63;5008242;28;20071;-68
2021/07/21 04:28:54;;;;;;;25.98;14.68;;;;;;;15.04;80.45;102462.84;5025409;28;20021;-68
2021/07/21 04:31:26;;;;;;;29.40;13.63;;;;;;;15.04;80.04;102468.13;5007249;28;20036;-68
2021/07/21 04:33:53;;;;;;;24.17;13.52;;;;;;;15.00;80.28;102470.84;5010411;28;20029;-68
2021/07/21 04:36:18;;;;;;;28.30;15.02;;;;;;;15.00;80.41;102470.00;5009177;28;20048;-68
2021/07/21 04:38:44;;;;;;;23.48;13.93;;;;;;;15.00;80.56;102475.28;5003023;28;20061;-67
2021/07/21 04:41:09;;;;;;;27.88;13.90;;;;;;;15.02;80.52;102468.19;5003291;28;20037;-67
2021/07/21 04:43:35;;;;;;;26.60;14.10;;;;;;;15.03;80.54;102469.88;5007096;28;20072;-67
2021/07/21 04:46:00;;;;;;;35.70;14.32;;;;;;;15.09;80.13;102467.09;5020223;28;20079;-68
2021/07/21 04:48:26;;;;;;;27.77;15.43;;;;;;;15.18;79.80;102465.97;5008466;28;20021;-67
2021/07/21 04:50:52;;;;;;;25.30;14.15;;;;;;;15.26;79.92;102479.88;5007838;28;20022;-67
2021/07/21 04:53:17;;;;;;;24.95;14.05;;;;;;;15.37;79.73;102476.94;5006814;28;20063;-68
2021/07/21 04:55:45;;;;;;;24.67;14.10;;;;;;;15.49;79.06;102484.53;5014664;28;20014;-68
2021/07/21 04:58:11;;;;;;;24.75;14.20;;;;;;;15.57;79.19;102486.13;5016312;28;20216;-68
2021/07/21 05:00:36;;;;;;;25.17;14.70;;;;;;;15.66;78.48;102485.84;5017853;28;20112;-68
2021/07/21 05:03:06;;;;;;;26.15;14.73;;;;;;;15.76;78.18;102489.09;5023316;28;20430;-69
2021/07/21 05:05:35;;;;;;;23.98;13.82;;;;;;;15.83;77.80;102493.34;5015242;28;20029;-67
2021/07/21 05:08:01;;;;;;;28.23;14.75;;;;;;;15.93;78.36;102497.44;5016972;28;20061;-67
2021/07/21 05:10:26;;;;;;;22.80;14.02;;;;;;;16.03;77.66;102499.84;5006606;28;20056;-68
2021/07/21 05:12:51;;;;;;;25.27;14.18;;;;;;;16.15;77.44;102504.78;5023840;28;20029;-68
2021/07/21 05:15:17;;;;;;;28.90;15.63;;;;;;;16.22;77.03;102508.94;5006948;28;20018;-68
2021/07/21 05:17:42;;;;;;;26.40;15.70;;;;;;;16.21;75.57;102503.72;5024047;28;20025;-68
2021/07/21 05:20:08;;;;;;;24.05;13.98;;;;;;;16.38;76.01;102505.84;5025253;28;20387;-68
2021/07/21 05:22:34;;;;;;;22.83;14.50;;;;;;;16.51;75.85;102507.22;5024565;28;20049;-68
2021/07/21 05:24:59;;;;;;;27.00;15.85;;;;;;;16.64;75.58;102512.97;5004950;28;20609;-68
2021/07/21 05:27:24;;;;;;;27.48;15.35;;;;;;;16.60;74.75;102514.84;5023738;28;20033;-68
2021/07/21 05:29:50;;;;;;;22.17;13.77;;;;;;;16.87;73.67;102506.94;4997228;28;20033;-68
2021/07/21 05:32:15;;;;;;;29.02;16.40;;;;;;;17.06;71.97;102511.66;5013674;28;20025;-68
2021/07/21 05:34:41;;;;;;;25.73;14.55;;;;;;;17.14;72.20;102509.63;5004388;28;20367;-69
2021/07/21 05:37:06;;;;;;;27.13;15.98;;;;;;;17.23;71.10;102513.75;5024517;28;20022;-69
2021/07/21 05:39:31;;;;;;;25.90;14.98;;;;;;;17.25;71.86;102506.56;5031335;28;20025;-68
2021/07/21 05:41:57;;;;;;;24.77;14.73;;;;;;;17.39;71.82;102508.75;5028612;28;20045;-68
2021/07/21 05:44:26;;;;;;;26.17;15.70;;;;;;;17.43;70.58;102513.91;5026660;28;20017;-68
2021/07/21 05:46:51;;;;;;;25.58;15.82;;;;;;;17.48;69.78;102510.22;5029200;28;20017;-68
2021/07/21 05:49:16;;;;;;;25.17;14.82;;;;;;;17.63;70.23;102519.44;5029148;28;20486;-69
2021/07/21 05:51:42;;;;;;;25.13;15.60;;;;;;;17.67;70.61;102521.88;5028741;28;20108;-67
2021/07/21 05:54:07;;;;;;;32.72;16.05;;;;;;;17.69;70.50;102519.22;5010700;28;20040;-67
2021/07/21 05:56:33;;;;;;;27.23;15.98;;;;;;;17.82;70.15;102515.16;5047369;28;20025;-69
2021/07/21 05:58:59;;;;;;;31.23;15.75;;;;;;;17.83;69.09;102516.91;5048768;28;20442;-68
2021/07/21 06:01:24;;;;;;;26.13;15.48;;;;;;;17.98;69.06;102519.94;5028580;28;20108;-68
2021/07/21 06:03:49;;;;;;;28.88;15.52;;;;;;;18.14;67.81;102520.22;5009286;28;20121;-68
2021/07/21 06:06:15;;;;;;;24.63;16.23;;;;;;;18.21;67.02;102519.06;5009687;28;20044;-69
2021/07/21 06:08:40;;;;;;;44.63;17.55;;;;;;;18.22;66.37;102519.00;5009941;28;20108;-68
2021/07/21 06:11:06;;;;;;;30.48;15.57;;;;;;;18.36;66.07;102531.75;5009514;28;20360;-68
2021/07/21 06:13:31;;;;;;;26.05;15.10;;;;;;;18.50;66.37;102531.19;5009609;28;20033;-68
2021/07/21 06:16:03;;;;;;;29.83;16.02;;;;;;;18.72;65.50;102533.00;5013604;28;20025;-67
2021/07/21 06:18:28;;;;;;;28.15;16.73;;;;;;;18.81;63.99;102526.47;5027029;28;20030;-68
2021/07/21 06:20:53;;;;;;;29.40;16.08;;;;;;;18.89;63.68;102532.34;5019253;28;20040;-68
2021/07/21 06:23:19;;;;;;;23.92;15.00;;;;;;;18.96;62.77;102530.31;5016844;28;20067;-68
2021/07/21 06:25:44;;;;;;;24.75;15.75;;;;;;;19.06;63.09;102536.97;5027848;28;20033;-68
2021/07/21 06:28:09;;;;;;;26.45;16.75;;;;;;;19.02;63.45;102538.03;5024664;28;20036;-68
2021/07/21 06:30:35;;;;;;;29.15;16.38;;;;;;;18.99;64.38;102540.81;5026256;28;20037;-68
2021/07/21 06:33:00;;;;;;;30.33;16.23;;;;;;;19.19;64.41;102543.50;5015961;28;20022;-68
2021/07/21 06:35:25;;;;;;;30.77;16.67;;;;;;;19.29;63.91;102543.97;5028225;28;20033;-68
2021/07/21 06:37:51;;;;;;;24.30;15.35;;;;;;;19.47;63.02;102539.66;5021451;28;20028;-68
2021/07/21 06:40:17;;;;;;;29.10;16.83;;;;;;;19.61;62.11;102548.81;5019754;28;20025;-69
2021/07/21 06:42:43;;;;;;;25.52;15.73;;;;;;;19.75;61.71;102557.06;5029068;28;20096;-69
2021/07/21 06:45:09;;;;;;;32.80;15.02;;;;;;;19.85;60.07;102562.88;5025370;28;20122;-69
2021/07/21 06:47:35;;;;;;;28.92;15.70;;;;;;;20.03;60.73;102555.84;5028172;28;20368;-69
2021/07/21 06:50:00;;;;;;;35.30;16.08;;;;;;;20.11;59.99;102563.50;5007868;28;20032;-69
2021/07/21 06:52:26;;;;;;;26.60;16.58;;;;;;;20.27;58.48;102559.19;5037375;28;20036;-69
2021/07/21 06:54:52;;;;;;;29.95;15.35;;;;;;;20.28;58.55;102566.25;5029802;28;20028;-68
2021/07/21 06:57:17;;;;;;;42.35;17.70;;;;;;;20.35;58.38;102565.97;5033503;28;20032;-68
2021/07/21 06:59:43;;;;;;;26.67;15.23;;;;;;;20.38;58.29;102568.47;5010638;28;20021;-68
2021/07/21 07:02:09;;;;;;;35.85;17.10;;;;;;;20.35;58.29;102569.47;5012984;28;20028;-68
2021/07/21 07:04:34;;;;;;;25.90;14.98;;;;;;;20.63;58.12;102570.84;5026410;28;20025;-68
2021/07/21 07:07:00;;;;;;;24.52;14.60;;;;;;;20.72;54.43;102570.41;5009570;28;20032;-68
2021/07/21 07:09:25;;;;;;;29.15;13.50;;;;;;;20.87;54.24;102575.94;5026512;28;20035;-68
2021/07/21 07:11:51;;;;;;;21.42;11.98;;;;;;;21.21;53.83;102577.81;5026162;28;20021;-68
2021/07/21 07:14:18;;;;;;;26.83;13.90;;;;;;;21.09;52.63;102573.09;5028894;28;20030;-68
2021/07/21 07:16:43;;;;;;;28.45;13.02;;;;;;;20.94;53.50;102574.72;5020274;28;20032;-69
2021/07/21 07:19:09;;;;;;;18.85;12.52;;;;;;;20.96;52.41;102575.47;5027959;28;20112;-69
2021/07/21 07:21:34;;;;;;;23.65;12.55;;;;;;;21.00;51.67;102573.53;5026903;28;20060;-69
2021/07/21 07:23:59;;;;;;;23.13;12.23;;;;;;;20.88;53.40;102575.88;5029461;28;20044;-68
2021/07/21 07:26:25;;;;;;;20.70;10.98;;;;;;;21.16;51.01;102581.63;5026276;28;20032;-68
2021/07/21 07:28:54;;;;;;;19.33;11.13;;;;;;;21.23;51.65;102572.38;5029279;28;20210;-68
2021/07/21 07:31:19;;;;;;;22.27;11.63;;;;;;;21.59;51.28;102579.47;5025958;28;20033;-68
2021/07/21 07:33:44;;;;;;;18.45;10.85;;;;;;;21.60;50.64;102586.53;5028566;28;20643;-68
2021/07/21 07:36:10;;;;;;;17.70;10.27;;;;;;;21.86;50.56;102584.31;5028009;28;20105;-69
2021/07/21 07:38:35;;;;;;;21.00;11.77;;;;;;;21.98;49.94;102578.31;5028503;28;20127;-68
2021/07/21 07:41:00;;;;;;;19.45;11.10;;;;;;;22.04;49.76;102583.31;5028651;28;20441;-69
2021/07/21 07:43:26;;;;;;;21.50;11.25;;;;;;;22.27;49.87;102583.00;5028183;28;20815;-68
2021/07/21 07:45:52;;;;;;;21.50;12.20;;;;;;;22.27;49.24;102585.69;5027961;28;20372;-68
2021/07/21 07:48:17;;;;;;;20.65;11.55;;;;;;;22.16;49.36;102584.44;5027739;28;20051;-68
2021/07/21 07:50:43;;;;;;;21.25;12.13;;;;;;;22.09;49.62;102583.94;5027600;28;20025;-68
2021/07/21 07:53:08;;;;;;;23.05;11.75;;;;;;;22.42;49.57;102589.34;5025556;28;20269;-69
2021/07/21 07:55:36;;;;;;;21.60;11.88;;;;;;;22.51;49.96;102581.69;5015612;28;20030;-69
2021/07/21 07:58:02;;;;;;;20.02;11.98;;;;;;;22.62;48.34;102580.19;5024475;28;20097;-69
2021/07/21 08:00:27;;;;;;;23.50;12.52;;;;;;;22.84;48.86;102578.00;4996329;28;20429;-68
2021/07/21 08:02:53;;;;;;;19.60;10.52;;;;;;;22.69;47.62;102584.25;5007133;28;20184;-69
2021/07/21 08:05:18;;;;;;;18.33;11.05;;;;;;;22.78;47.54;102578.38;5027258;28;20418;-70
2021/07/21 08:07:44;;;;;;;19.45;10.88;;;;;;;22.82;46.21;102579.06;5028131;28;20446;-69
2021/07/21 08:10:13;;;;;;;18.58;10.35;;;;;;;22.94;46.78;102575.66;5027661;28;20101;-69
2021/07/21 08:12:39;;;;;;;21.88;10.90;;;;;;;22.76;47.00;102579.41;5027116;28;20509;-69
2021/07/21 08:15:05;;;;;;;21.83;11.10;;;;;;;22.98;46.70;102579.03;5022017;28;20075;-69
2021/07/21 08:17:30;;;;;;;19.25;10.32;;;;;;;23.12;46.63;102586.25;5020022;28;20049;-68
2021/07/21 08:19:55;;;;;;;16.60;10.57;;;;;;;23.17;46.29;102574.38;5027196;28;20025;-67
2021/07/21 08:22:21;;;;;;;19.08;10.75;;;;;;;23.35;46.24;102577.75;5028053;28;20053;-68
2021/07/21 08:24:46;;;;;;;15.50;10.32;;;;;;;23.09;44.73;102587.28;5027621;28;20111;-68
2021/07/21 08:27:11;;;;;;;20.48;10.75;;;;;;;23.45;44.77;102578.06;5027405;28;20510;-69
2021/07/21 08:29:37;;;;;;;19.55;11.30;;;;;;;23.82;44.00;102577.63;5010092;28;20482;-68
2021/07/21 08:32:03;;;;;;;17.65;10.63;;;;;;;24.52;42.62;102584.00;5026511;28;20063;-69
2021/07/21 08:34:29;;;;;;;18.08;10.63;;;;;;;25.30;40.11;102578.84;5025202;28;20048;-68
2021/07/21 08:36:54;;;;;;;19.85;11.13;;;;;;;25.64;39.48;102585.53;5027373;28;20014;-70
2021/07/21 08:39:19;;;;;;;17.40;10.65;;;;;;;25.78;38.94;102580.06;5010107;28;20387;-69
2021/07/21 08:41:45;;;;;;;19.42;11.13;;;;;;;25.95;39.32;102581.56;5024759;28;20538;-69
2021/07/21 08:44:14;;;;;;;20.25;11.07;;;;;;;26.76;37.82;102587.41;5027583;28;20029;-70
2021/07/21 08:46:40;;;;;;;18.88;10.63;;;;;;;26.88;38.68;102585.66;5026121;28;20041;-69
2021/07/21 08:49:07;;;;;;;18.25;11.43;;;;;;;27.21;37.29;102582.22;5027230;28;20553;-70
2021/07/21 08:51:34;;;;;;;18.67;11.55;;;;;;;27.59;36.89;102585.63;5026676;28;20021;-67
2021/07/21 08:54:00;;;;;;;17.77;11.60;;;;;;;27.41;35.37;102587.91;5027283;28;20036;-68
2021/07/21 08:56:25;;;;;;;15.75;11.07;;;;;;;26.92;36.02;102591.63;5027331;28;20021;-69
2021/07/21 08:58:51;;;;;;;20.92;11.15;;;;;;;27.33;35.81;102584.94;5026881;28;20390;-68
2021/07/21 09:01:17;;;;;;;18.20;11.07;;;;;;;27.86;35.98;102587.13;4992507;28;20079;-69
2021/07/21 09:03:43;;;;;;;18.55;10.38;;;;;;;28.29;34.96;102578.31;5008905;28;20087;-69
2021/07/21 09:06:09;;;;;;;21.20;11.60;;;;;;;28.10;34.05;102588.88;5027490;28;20421;-68
2021/07/21 09:08:34;;;;;;;19.48;11.13;;;;;;;27.78;34.03;102589.56;5008438;28;20111;-69
2021/07/21 09:11:01;;;;;;;15.07;9.98;;;;;;;28.57;33.51;102599.47;5027364;28;20095;-69
2021/07/21 09:13:27;;;;;;;21.92;11.77;;;;;;;28.26;33.42;102588.50;5030350;28;20034;-70
2021/07/21 09:15:52;;;;;;;19.25;11.50;;;;;;;28.41;35.95;102594.47;5015609;28;20032;-69
2021/07/21 09:18:18;;;;;;;16.42;10.02;;;;;;;29.09;34.15;102596.97;5034018;28;20057;-69
2021/07/21 09:20:49;;;;;;;15.68;11.00;;;;;;;28.73;35.87;102590.97;5033294;28;20467;-69
2021/07/21 09:23:14;;;;;;;20.88;10.70;;;;;;;29.66;33.22;102589.41;5033852;28;20021;-69
2021/07/21 09:25:41;;;;;;;22.33;10.85;;;;;;;29.88;31.65;102590.19;5033323;28;20450;-69
2021/07/21 09:28:10;;;;;;;17.13;10.05;;;;;;;30.37;31.51;102585.81;5031935;28;20045;-69
2021/07/21 09:30:41;;;;;;;19.50;10.45;;;;;;;30.67;30.22;102589.47;5023840;28;20525;-69
2021/07/21 09:33:11;;;;;;;19.73;10.77;;;;;;;29.76;30.70;102584.88;5021785;28;20022;-69
2021/07/21 09:35:44;;;;;;;19.67;11.02;;;;;;;29.66;31.50;102592.09;5026408;28;20486;-68
2021/07/21 09:38:16;;;;;;;18.13;10.67;;;;;;;29.94;32.87;102577.03;5025091;28;20038;-69
2021/07/21 09:40:43;;;;;;;15.60;10.40;;;;;;;30.29;31.76;102580.28;5022696;28;20062;-69
2021/07/21 09:43:11;;;;;;;17.52;10.35;;;;;;;30.53;31.63;102582.63;5025052;28;20060;-69
2021/07/21 09:45:37;;;;;;;18.98;10.52;;;;;;;30.63;31.43;102576.38;5023366;28;20109;-69
2021/07/21 09:48:03;;;;;;;15.05;10.30;;;;;;;30.50;32.55;102576.63;5007679;28;20108;-70
2021/07/21 09:50:30;;;;;;;17.98;10.20;;;;;;;30.98;29.54;102574.94;5001667;28;20022;-70
2021/07/21 09:53:04;;;;;;;18.35;9.52;;;;;;;30.61;30.03;102584.59;5025252;28;20029;-70
2021/07/21 09:55:30;;;;;;;18.00;10.27;;;;;;;30.80;31.11;102577.50;5005143;28;20383;-69
2021/07/21 09:58:19;;;;;;;23.02;10.68;;;;;;;30.75;30.10;102576.06;5026413;28;20486;-69
2021/07/21 10:00:46;;;;;;;15.25;10.05;;;;;;;30.42;31.02;102577.28;5031619;28;20056;-68
2021/07/21 10:03:24;;;;;;;20.05;10.65;;;;;;;31.21;30.01;102575.53;5017162;28;20030;-69
2021/07/21 10:05:54;;;;;;;17.25;10.05;;;;;;;31.41;30.67;102576.31;5032028;28;20053;-69
2021/07/21 10:08:43;;;;;;;15.00;10.10;;;;;;;31.62;29.25;102577.94;5033277;28;20377;-69
2021/07/21 10:11:30;;;;;;;18.73;10.05;;;;;;;31.48;27.87;102579.28;5011536;28;20525;-69
2021/07/21 10:14:07;;;;;;;15.90;9.65;;;;;;;31.10;29.96;102575.66;5008645;28;20026;-69
2021/07/21 10:16:44;;;;;;;15.20;9.20;;;;;;;31.44;30.01;102576.00;5024793;28;20025;-69
2021/07/21 10:19:15;;;;;;;21.98;9.50;;;;;;;31.97;29.14;102579.16;5000912;28;20044;-69
2021/07/21 10:21:53;;;;;;;16.38;10.57;;;;;;;31.90;28.82;102576.16;5014537;28;20099;-69
2021/07/21 10:24:20;;;;;;;16.55;10.30;;;;;;;31.05;29.51;102576.91;5032030;28;20078;-69
2021/07/21 10:26:45;;;;;;;20.92;10.48;;;;;;;30.82;29.88;102579.06;5022530;28;20223;-69
2021/07/21 10:29:11;;;;;;;18.67;9.40;;;;;;;32.01;30.24;102583.25;5021604;28;20061;-68
2021/07/21 10:31:38;;;;;;;22.90;10.05;;;;;;;32.60;28.38;102577.47;5009999;28;20296;-70
2021/07/21 10:34:04;;;;;;;17.77;10.73;;;;;;;32.32;28.82;102572.94;5019894;28;20056;-68
2021/07/21 10:36:30;;;;;;;19.58;11.82;;;;;;;31.58;28.48;102565.69;5037486;28;20017;-69
2021/07/21 10:38:56;;;;;;;17.67;10.57;;;;;;;30.89;30.77;102579.34;4997048;28;20300;-69
2021/07/21 10:41:21;;;;;;;20.35;10.82;;;;;;;31.14;30.22;102574.38;5010925;28;20068;-69
2021/07/21 10:43:52;;;;;;;16.67;11.50;;;;;;;30.64;31.58;102565.38;5010611;28;20025;-69
2021/07/21 10:46:42;;;;;;;16.98;11.13;;;;;;;29.69;31.92;102572.91;5016400;28;20390;-69
2021/07/21 10:49:36;;;;;;;18.48;11.50;;;;;;;28.80;34.46;102576.84;5019777;28;20695;-69
2021/07/21 10:55:16;;;;;;;18.23;12.40;;;;;;;27.46;37.20;102566.88;5028221;28;20060;-68
2021/07/21 11:00:31;;;;;;;18.55;11.50;;;;;;;27.38;37.05;102564.72;5027726;28;20397;-69
2021/07/21 11:03:18;;;;;;;24.05;12.02;;;;;;;27.73;35.91;102557.56;5014559;28;20076;-69
2021/07/21 11:05:50;;;;;;;23.77;12.73;;;;;;;27.57;37.76;102559.78;5017955;28;20112;-69
2021/07/21 11:08:20;;;;;;;21.40;11.38;;;;;;;27.50;37.16;102560.25;5008439;28;20136;-69
2021/07/21 11:10:50;;;;;;;19.25;11.82;;;;;;;27.59;36.83;102561.38;5028019;28;20022;-69
2021/07/21 11:13:27;;;;;;;22.45;12.10;;;;;;;28.70;34.11;102554.28;5028101;28;20475;-69
2021/07/21 11:15:53;;;;;;;19.27;10.60;;;;;;;30.28;32.92;102565.03;5026351;28;20033;-69
2021/07/21 11:18:21;;;;;;;17.65;10.85;;;;;;;31.46;30.21;102554.19;5021152;28;20379;-69